createdAt,value
2023-05-08T16:46:29.270Z,18.33
2023-05-08T16:48:57.177Z,18.84
2023-05-08T16:51:23.959Z,19.27
2023-05-08T16:53:50.629Z,19.49
2023-05-08T16:56:17.377Z,19.58
2023-05-08T16:58:44.041Z,20.18
2023-05-08T17:01:10.819Z,20.53
2023-05-08T17:03:37.661Z,20.19
2023-05-08T17:06:12.459Z,19.68
2023-05-08T17:08:39.117Z,19.82
2023-05-08T17:11:14.609Z,19.44
2023-05-08T17:13:41.298Z,19.56
2023-05-08T17:16:08.370Z,19.52
2023-05-08T17:18:35.659Z,19.74
2023-05-08T17:21:02.313Z,19.37
2023-05-08T17:23:29.012Z,19.40
2023-05-08T17:25:59.911Z,19.42
2023-05-08T17:28:27.435Z,19.06
2023-05-08T17:30:54.489Z,19.08
2023-05-08T17:33:21.381Z,19.35
2023-05-08T17:35:48.496Z,19.91
2023-05-08T17:38:18.058Z,19.85
2023-05-08T17:40:44.717Z,19.69
2023-05-08T17:43:12.553Z,19.54
2023-05-08T17:45:42.185Z,19.61
2023-05-08T17:48:08.943Z,19.74
2023-05-08T17:50:35.737Z,19.30
2023-05-08T17:53:03.423Z,18.92
2023-05-08T17:55:30.499Z,18.93
2023-05-08T17:57:59.034Z,18.73
2023-05-08T18:00:25.731Z,18.88
2023-05-08T18:02:52.502Z,18.82
2023-05-08T18:05:19.414Z,18.82
2023-05-08T18:07:46.183Z,18.91
2023-05-08T18:10:13.064Z,18.60
2023-05-08T18:12:40.018Z,18.70
2023-05-08T18:15:07.976Z,18.91
2023-05-08T18:17:34.717Z,18.72
2023-05-08T18:20:02.295Z,18.56
2023-05-08T18:22:33.178Z,18.81
2023-05-08T18:25:00.122Z,18.73
2023-05-08T18:27:47.906Z,18.69
2023-05-08T18:30:14.971Z,18.71
2023-05-08T18:32:46.137Z,18.44
2023-05-08T18:35:12.851Z,18.55
2023-05-08T18:37:39.478Z,18.23
2023-05-08T18:40:08.036Z,18.67
2023-05-08T18:42:34.681Z,18.66
2023-05-08T18:45:03.672Z,18.31
2023-05-08T18:47:30.414Z,17.96
2023-05-08T18:49:57.068Z,17.66
2023-05-08T18:52:23.960Z,17.87
2023-05-08T18:54:51.123Z,17.73
2023-05-08T18:57:18.103Z,18.01
2023-05-08T18:59:45.015Z,18.25
2023-05-08T19:02:11.682Z,18.34
2023-05-08T19:04:38.324Z,18.09
2023-05-08T19:07:05.000Z,18.27
2023-05-08T19:09:31.681Z,17.69
2023-05-08T19:11:58.333Z,17.59
2023-05-08T19:14:25.183Z,17.83
2023-05-08T19:16:52.219Z,17.58
2023-05-08T19:19:18.855Z,17.40
2023-05-08T19:22:08.385Z,17.44
2023-05-08T19:24:38.695Z,17.36
2023-05-08T19:27:05.648Z,16.98
2023-05-08T19:29:34.806Z,17.16
2023-05-08T19:32:04.405Z,17.22
2023-05-08T19:34:31.478Z,17.15
2023-05-08T19:37:01.182Z,16.96
2023-05-08T19:39:27.838Z,16.89
2023-05-08T19:41:54.480Z,16.85
2023-05-08T19:44:21.250Z,16.62
2023-05-08T19:46:51.398Z,16.58
2023-05-08T19:49:18.050Z,16.67
2023-05-08T19:51:45.673Z,16.61
2023-05-08T19:54:14.098Z,16.77
2023-05-08T19:56:40.997Z,16.73
2023-05-08T19:59:07.640Z,16.65
2023-05-08T20:01:34.950Z,16.53
2023-05-08T20:04:07.191Z,16.56
2023-05-08T20:06:33.884Z,16.53
2023-05-08T20:09:00.558Z,16.78
2023-05-08T20:11:27.292Z,16.62
2023-05-08T20:13:54.078Z,16.54
2023-05-08T20:16:20.799Z,16.39
2023-05-08T20:18:47.701Z,16.40
2023-05-08T20:21:14.747Z,16.36
2023-05-08T20:23:41.743Z,16.29
2023-05-08T20:26:08.428Z,16.33
2023-05-08T20:28:35.428Z,16.43
2023-05-08T20:31:02.473Z,16.31
2023-05-08T20:33:29.409Z,16.45
2023-05-08T20:35:56.098Z,16.35
2023-05-08T20:38:25.050Z,16.42
2023-05-08T20:40:52.419Z,16.35
2023-05-08T20:43:20.765Z,16.24
2023-05-08T20:45:47.502Z,15.88
2023-05-08T20:48:14.241Z,15.96
2023-05-08T20:50:40.918Z,15.82
2023-05-08T20:53:07.621Z,15.75
2023-05-08T20:55:34.331Z,15.86
2023-05-08T20:58:00.982Z,15.91
2023-05-08T21:00:27.695Z,15.70
2023-05-08T21:02:54.411Z,15.76
2023-05-08T21:05:21.226Z,15.96
2023-05-08T21:07:48.007Z,15.79
2023-05-08T21:10:14.915Z,15.94
2023-05-08T21:12:41.886Z,15.91
2023-05-08T21:15:08.728Z,15.92
2023-05-08T21:17:35.457Z,15.99
2023-05-08T21:20:02.194Z,15.79
2023-05-08T21:22:28.862Z,15.79
2023-05-08T21:24:55.538Z,15.68
2023-05-08T21:27:22.244Z,15.59
2023-05-08T21:29:48.902Z,15.56
2023-05-08T21:32:15.531Z,15.78
2023-05-08T21:34:42.190Z,15.88
2023-05-08T21:37:08.856Z,15.61
2023-05-08T21:39:35.484Z,15.48
2023-05-08T21:42:02.550Z,15.31
2023-05-08T21:44:29.797Z,15.40
2023-05-08T21:46:56.464Z,15.26
2023-05-08T21:49:23.106Z,15.29
2023-05-08T21:51:49.821Z,15.40
2023-05-08T21:54:16.518Z,15.16
2023-05-08T21:56:43.204Z,15.06
2023-05-08T21:59:09.882Z,15.08
2023-05-08T22:01:36.684Z,15.22
2023-05-08T22:04:03.398Z,15.07
2023-05-08T22:06:30.070Z,14.90
2023-05-08T22:09:34.475Z,14.93
2023-05-08T22:12:04.704Z,14.85
2023-05-08T22:14:31.414Z,14.82
2023-05-08T22:17:16.737Z,14.87
2023-05-08T22:19:43.462Z,14.87
2023-05-08T22:22:11.564Z,14.80
2023-05-08T22:25:16.080Z,14.82
2023-05-08T22:27:43.243Z,14.70
2023-05-08T22:30:10.108Z,14.80
2023-05-08T22:32:36.797Z,14.77
2023-05-08T22:35:03.675Z,14.68
2023-05-08T22:37:30.314Z,14.79
2023-05-08T22:39:57.044Z,14.83
2023-05-08T22:42:24.511Z,14.91
2023-05-08T22:44:51.365Z,14.95
2023-05-08T22:47:18.365Z,14.96
2023-05-08T22:49:45.080Z,15.06
2023-05-08T22:52:11.877Z,15.11
2023-05-08T22:54:38.517Z,15.04
2023-05-08T22:57:05.302Z,14.79
2023-05-08T22:59:31.988Z,14.73
2023-05-08T23:01:58.626Z,14.60
2023-05-08T23:04:25.315Z,14.69
2023-05-08T23:06:52.064Z,14.52
2023-05-08T23:09:18.736Z,14.39
2023-05-08T23:11:45.443Z,14.36
2023-05-08T23:14:12.122Z,14.29
2023-05-08T23:16:38.805Z,14.20
2023-05-08T23:19:05.857Z,14.24
2023-05-08T23:21:32.543Z,14.29
2023-05-08T23:23:59.263Z,14.47
2023-05-08T23:26:25.964Z,15.08
2023-05-08T23:28:52.802Z,15.16
2023-05-08T23:31:19.507Z,15.37
2023-05-08T23:33:46.236Z,15.22
2023-05-08T23:36:12.901Z,14.93
2023-05-08T23:38:39.587Z,14.67
2023-05-08T23:41:06.366Z,14.56
2023-05-08T23:43:33.106Z,14.50
2023-05-08T23:45:59.805Z,14.68
2023-05-08T23:48:26.589Z,14.80
2023-05-08T23:50:53.284Z,14.66
2023-05-08T23:53:19.967Z,14.71
2023-05-08T23:55:49.583Z,15.09
2023-05-08T23:58:16.586Z,15.34
